Humptulips, Washington
Current Conditions -  °F | °C
As of 5:53 AM on Friday 24 Oct 2014 (Local Time) from KHQM Reporting Station
Scattered Clouds Scattered Clouds  
Wind Chill: 45°   Ceiling: Unl
Heat Index: 48°   Visibility: 8mi
Dew Point: 46°   Wind: 7mph
Humidity: 93%   Direction: 30°NNE
Pressure: 29.99"   Gusts: NA
Location:  47.23°N, 123.96°W
Report Text: KHQM 241253Z AUTO 03006KT 8SM SCT060 09/08 A2999 RMK AO2 SLP160 T00890078
Loading
Personal Weather Stations






























Interactive Weather Map
Tropical Storm Tracking
New forecast layout! Learn more

10-Day Weather Forecast

Advertisements
Track Severe Weather on mobile